createdAt,value
2019-04-10T00:01:59.335Z,30.01
2019-04-10T00:04:31.492Z,30.00
2019-04-10T00:07:13.857Z,29.96
2019-04-10T00:09:36.751Z,30.02
2019-04-10T00:12:09.432Z,30.02
2019-04-10T00:14:41.097Z,30.11
2019-04-10T00:17:13.135Z,30.00
2019-04-10T00:19:45.597Z,30.00
2019-04-10T00:22:18.051Z,29.96
2019-04-10T00:24:50.474Z,30.02
2019-04-10T00:27:22.803Z,30.04
2019-04-10T00:29:54.485Z,30.04
2019-04-10T00:32:25.959Z,29.94
2019-04-10T00:35:00.223Z,29.94
2019-04-10T00:37:33.909Z,29.90
2019-04-10T00:40:06.820Z,29.75
2019-04-10T00:42:39.229Z,29.75
2019-04-10T00:45:11.277Z,29.81
2019-04-10T00:47:43.453Z,30.00
2019-04-10T00:50:15.629Z,30.00
2019-04-10T00:52:48.257Z,29.74
2019-04-10T00:55:20.106Z,29.93
2019-04-10T00:57:52.160Z,30.01
2019-04-10T01:00:25.457Z,30.05
2019-04-10T01:02:57.495Z,30.03
2019-04-10T01:05:29.230Z,30.06
2019-04-10T01:08:04.404Z,30.01
2019-04-10T01:10:36.741Z,30.01
2019-04-10T01:13:08.442Z,29.64
2019-04-10T01:15:40.005Z,30.23
2019-04-10T01:18:17.170Z,30.23
2019-04-10T01:20:50.228Z,30.32
2019-04-10T01:23:22.562Z,30.38
2019-04-10T01:25:55.314Z,30.38
2019-04-10T01:28:26.924Z,30.53
2019-04-10T01:30:59.086Z,30.37
2019-04-10T01:33:30.833Z,30.37
2019-04-10T01:36:02.878Z,30.49
2019-04-10T01:38:36.367Z,30.60
2019-04-10T01:41:09.781Z,30.60
2019-04-10T01:43:41.966Z,30.71
2019-04-10T01:46:13.827Z,30.90
2019-04-10T01:48:47.679Z,31.21
2019-04-10T01:51:19.212Z,31.21
2019-04-10T01:53:51.071Z,31.18
2019-04-10T01:56:30.224Z,31.39
2019-04-10T01:58:57.167Z,31.37
2019-04-10T02:01:36.764Z,31.45
2019-04-10T02:04:08.883Z,31.52
2019-04-10T02:06:41.212Z,31.64
2019-04-10T02:09:12.898Z,31.68
2019-04-10T02:11:46.039Z,31.68
2019-04-10T02:14:18.554Z,31.79
2019-04-10T02:16:49.832Z,31.97
2019-04-10T02:19:21.902Z,32.08
2019-04-10T02:21:53.601Z,32.34
2019-04-10T02:24:25.292Z,32.04
2019-04-10T02:26:58.127Z,31.66
2019-04-10T02:29:29.734Z,30.97
2019-04-10T02:32:02.112Z,30.97
2019-04-10T02:34:33.567Z,31.39
2019-04-10T02:37:06.604Z,31.39
2019-04-10T02:39:44.734Z,31.43
2019-04-10T02:42:11.967Z,31.58
2019-04-10T02:44:44.075Z,31.44
2019-04-10T02:47:16.869Z,31.44
2019-04-10T02:49:49.313Z,31.10
2019-04-10T02:52:22.509Z,31.43
2019-04-10T02:54:54.537Z,31.86
2019-04-10T02:57:27.528Z,32.06
2019-04-10T03:00:00.935Z,32.06
2019-04-10T03:02:36.121Z,32.26
2019-04-10T03:05:09.366Z,32.24
2019-04-10T03:07:42.276Z,32.03
2019-04-10T03:10:24.490Z,32.03
2019-04-10T03:12:48.557Z,32.03
2019-04-10T03:15:20.798Z,32.20
2019-04-10T03:17:52.451Z,32.20
2019-04-10T03:20:24.631Z,32.03
2019-04-10T03:22:56.879Z,32.69
2019-04-10T03:25:28.956Z,32.33
2019-04-10T03:28:02.845Z,32.50
2019-04-10T03:30:36.539Z,32.50
2019-04-10T03:33:32.458Z,32.52
2019-04-10T03:36:03.288Z,32.33
2019-04-10T03:38:47.368Z,31.73
2019-04-10T03:41:09.962Z,31.39
2019-04-10T03:43:41.660Z,31.39
2019-04-10T03:46:13.409Z,31.40
2019-04-10T03:48:45.231Z,31.58
2019-04-10T03:51:16.945Z,31.79
2019-04-10T03:53:48.858Z,31.45
2019-04-10T03:56:21.334Z,31.45
2019-04-10T03:58:53.080Z,31.99
2019-04-10T04:01:25.078Z,32.10
2019-04-10T04:03:57.280Z,32.10
2019-04-10T04:06:28.647Z,31.98
2019-04-10T04:09:06.941Z,32.44
2019-04-10T04:11:37.839Z,32.52
2019-04-10T04:14:10.315Z,32.76
2019-04-10T04:16:42.359Z,32.70
2019-04-10T04:19:13.978Z,32.66
2019-04-10T04:21:45.431Z,32.66
2019-04-10T04:24:17.844Z,32.26
2019-04-10T04:26:50.705Z,32.76
2019-04-10T04:29:22.669Z,33.02
2019-04-10T04:31:54.716Z,32.85
2019-04-10T04:34:27.197Z,32.85
2019-04-10T04:37:00.260Z,33.22
2019-04-10T04:39:32.902Z,33.16
2019-04-10T04:42:05.081Z,33.48
2019-04-10T04:44:37.662Z,33.48
2019-04-10T04:47:09.717Z,33.45
2019-04-10T04:49:42.086Z,33.45
2019-04-10T04:52:14.239Z,33.70
2019-04-10T04:54:49.812Z,33.66
2019-04-10T04:57:22.644Z,33.95
2019-04-10T04:59:54.202Z,33.95
2019-04-10T05:02:26.219Z,33.69
2019-04-10T05:04:58.148Z,34.21
2019-04-10T05:07:29.671Z,34.21
2019-04-10T05:10:02.123Z,33.62
2019-04-10T05:12:33.985Z,33.62
2019-04-10T05:15:06.559Z,33.98
2019-04-10T05:17:39.309Z,34.26
2019-04-10T05:20:11.257Z,34.30
2019-04-10T05:22:45.898Z,34.31
2019-04-10T05:25:19.008Z,34.42
2019-04-10T05:27:51.106Z,34.42
2019-04-10T05:30:23.496Z,34.62
2019-04-10T05:32:55.685Z,34.70
2019-04-10T05:35:27.779Z,34.73
2019-04-10T05:38:00.419Z,34.57
2019-04-10T05:40:33.134Z,34.89
2019-04-10T05:43:05.898Z,34.89
2019-04-10T05:45:37.985Z,35.04
2019-04-10T05:48:11.075Z,35.04
2019-04-10T05:50:53.122Z,35.07
2019-04-10T05:53:16.314Z,35.38
2019-04-10T05:55:47.914Z,34.98
2019-04-10T05:58:21.729Z,34.74
2019-04-10T06:00:53.768Z,34.74
2019-04-10T06:03:25.012Z,35.08
2019-04-10T06:05:59.602Z,35.27
2019-04-10T06:08:31.606Z,34.87
2019-04-10T06:11:04.763Z,35.09
2019-04-10T06:13:36.931Z,35.09
2019-04-10T06:16:09.675Z,35.17
2019-04-10T06:18:42.940Z,34.71
2019-04-10T06:21:14.859Z,35.45
2019-04-10T06:23:47.593Z,35.60
2019-04-10T06:26:19.861Z,35.60
2019-04-10T06:28:52.681Z,35.42
2019-04-10T06:31:24.907Z,35.42
2019-04-10T06:33:56.506Z,35.53
2019-04-10T06:36:29.105Z,35.68
2019-04-10T06:39:02.566Z,35.70
2019-04-10T06:41:36.806Z,35.56
2019-04-10T06:44:09.816Z,35.56
2019-04-10T06:46:41.801Z,36.12
2019-04-10T06:49:14.377Z,36.12
2019-04-10T06:51:46.168Z,35.86
2019-04-10T06:54:18.675Z,35.81
2019-04-10T06:56:52.528Z,35.70
2019-04-10T06:59:32.408Z,35.70
2019-04-10T07:02:16.657Z,35.68
2019-04-10T07:04:46.024Z,35.68
2019-04-10T07:07:15.185Z,35.63
2019-04-10T07:09:47.457Z,36.24
2019-04-10T07:12:20.539Z,36.17
2019-04-10T07:14:56.491Z,35.61
2019-04-10T07:17:25.797Z,36.06
2019-04-10T07:19:57.618Z,36.35
2019-04-10T07:22:29.266Z,36.41
2019-04-10T07:25:00.750Z,36.41
2019-04-10T07:27:36.017Z,36.27
2019-04-10T07:30:08.332Z,36.12
2019-04-10T07:32:44.626Z,36.50
2019-04-10T07:35:18.288Z,36.73
2019-04-10T07:37:52.595Z,36.92
2019-04-10T07:40:22.848Z,36.90
2019-04-10T07:42:56.664Z,36.89
2019-04-10T07:45:28.198Z,37.07
2019-04-10T07:48:00.334Z,36.97
2019-04-10T07:50:32.323Z,36.93
2019-04-10T07:53:04.442Z,36.86
2019-04-10T07:55:37.308Z,36.69
2019-04-10T07:58:09.192Z,36.43
2019-04-10T08:00:40.935Z,36.83
2019-04-10T08:03:13.101Z,36.79
2019-04-10T08:05:45.969Z,36.79
2019-04-10T08:08:17.690Z,36.82
2019-04-10T08:10:49.403Z,37.01
2019-04-10T08:13:20.856Z,37.06
2019-04-10T08:15:52.617Z,36.88
2019-04-10T08:18:25.332Z,36.88
2019-04-10T08:20:57.306Z,36.93
2019-04-10T08:23:28.917Z,37.13
2019-04-10T08:26:00.732Z,36.86
2019-04-10T08:28:34.870Z,37.42
2019-04-10T08:31:06.623Z,37.25
2019-04-10T08:33:38.655Z,37.25
2019-04-10T08:36:10.889Z,37.40
2019-04-10T08:38:42.757Z,37.32
2019-04-10T08:41:14.426Z,37.42
2019-04-10T08:43:48.113Z,37.30
2019-04-10T08:46:19.800Z,37.06
2019-04-10T08:48:51.867Z,37.43
2019-04-10T08:51:23.565Z,37.19
2019-04-10T08:53:56.721Z,37.24
2019-04-10T08:56:28.397Z,37.34
2019-04-10T08:59:00.480Z,37.32
2019-04-10T09:01:32.172Z,37.32
2019-04-10T09:04:03.831Z,37.24
2019-04-10T09:06:35.734Z,37.41
2019-04-10T09:09:08.429Z,33.55
2019-04-10T09:11:41.420Z,34.29
2019-04-10T09:14:13.215Z,34.59
2019-04-10T09:16:44.961Z,34.59
2019-04-10T09:19:20.369Z,33.05
2019-04-10T09:21:52.741Z,36.33
2019-04-10T09:24:24.432Z,36.89
2019-04-10T09:26:57.054Z,36.88
2019-04-10T09:29:30.386Z,36.86
2019-04-10T09:32:02.191Z,36.87
2019-04-10T09:34:34.347Z,37.27
2019-04-10T09:37:06.513Z,37.33
2019-04-10T09:39:39.008Z,37.33
2019-04-10T09:42:12.884Z,37.59
2019-04-10T09:44:44.513Z,37.59
2019-04-10T09:47:16.495Z,37.69
2019-04-10T09:49:49.205Z,37.69
2019-04-10T09:52:21.734Z,38.02
2019-04-10T09:54:53.740Z,37.63
2019-04-10T09:57:26.592Z,37.63
2019-04-10T09:59:58.915Z,37.74
2019-04-10T10:02:31.950Z,37.81
2019-04-10T10:05:04.247Z,38.00
2019-04-10T10:07:36.801Z,37.77
2019-04-10T10:10:09.274Z,37.84
2019-04-10T10:12:40.946Z,37.84
2019-04-10T10:15:17.127Z,37.73
2019-04-10T10:17:48.855Z,37.73
2019-04-10T10:20:21.707Z,37.79
2019-04-10T10:22:53.932Z,37.74
2019-04-10T10:25:25.610Z,37.74
2019-04-10T10:28:03.500Z,37.91
2019-04-10T10:30:35.602Z,37.80
2019-04-10T10:33:07.773Z,37.72
2019-04-10T10:35:39.542Z,37.72
2019-04-10T10:38:11.136Z,37.86
2019-04-10T10:40:46.060Z,37.94
2019-04-10T10:43:18.557Z,38.03
2019-04-10T10:45:51.190Z,37.91
2019-04-10T10:48:23.997Z,38.04
2019-04-10T10:50:56.235Z,37.88
2019-04-10T10:53:28.480Z,38.03
2019-04-10T10:56:02.245Z,37.82
2019-04-10T10:58:35.334Z,37.96
2019-04-10T11:01:07.481Z,37.72
2019-04-10T11:03:40.391Z,38.07
2019-04-10T11:06:12.952Z,38.07
2019-04-10T11:08:46.094Z,38.16
2019-04-10T11:11:17.928Z,37.99
2019-04-10T11:13:50.822Z,37.94
2019-04-10T11:16:23.191Z,37.89
2019-04-10T11:18:55.122Z,37.98
2019-04-10T11:21:27.395Z,37.75
2019-04-10T11:24:00.862Z,37.61
2019-04-10T11:26:33.463Z,37.73
2019-04-10T11:29:05.744Z,37.73
2019-04-10T11:31:38.244Z,37.68
2019-04-10T11:34:11.787Z,37.94
2019-04-10T11:36:44.076Z,37.94
2019-04-10T11:39:22.539Z,37.90
2019-04-10T11:41:50.484Z,37.90
2019-04-10T11:44:22.197Z,37.89
2019-04-10T11:46:55.646Z,37.76
2019-04-10T11:49:27.803Z,37.80
2019-04-10T11:52:01.810Z,37.47
2019-04-10T11:54:40.351Z,37.47
2019-04-10T11:57:10.018Z,37.46
2019-04-10T11:59:44.772Z,37.50
2019-04-10T12:02:20.443Z,37.36
2019-04-10T12:04:54.224Z,37.31
2019-04-10T12:12:29.927Z,37.26
2019-04-10T12:15:01.926Z,37.33
2019-04-10T12:17:36.054Z,37.49
2019-04-10T12:20:08.959Z,37.44
2019-04-10T12:22:40.896Z,37.39
2019-04-10T12:25:12.715Z,37.40
2019-04-10T12:27:45.316Z,37.21
2019-04-10T12:30:20.227Z,37.32
2019-04-10T12:32:52.614Z,37.32
2019-04-10T12:35:24.757Z,37.22
2019-04-10T12:38:02.203Z,36.96
2019-04-10T12:40:30.763Z,36.96
2019-04-10T12:43:02.945Z,36.96
2019-04-10T12:45:34.658Z,36.76
2019-04-10T12:48:07.201Z,36.64
2019-04-10T12:50:39.121Z,36.49
2019-04-10T12:53:11.594Z,36.43
2019-04-10T12:55:43.765Z,36.38
2019-04-10T12:58:17.526Z,36.23
2019-04-10T13:00:48.396Z,36.19
2019-04-10T13:03:20.044Z,36.19
2019-04-10T13:05:51.625Z,36.09
2019-04-10T13:08:31.384Z,35.95
2019-04-10T13:10:56.379Z,35.93
2019-04-10T13:13:29.018Z,35.88
2019-04-10T13:16:01.513Z,35.82
2019-04-10T13:18:33.247Z,35.82
2019-04-10T13:21:04.809Z,35.74
2019-04-10T13:23:36.994Z,35.61
2019-04-10T13:26:10.852Z,35.55
2019-04-10T13:28:43.443Z,35.51
2019-04-10T13:31:15.305Z,35.43
2019-04-10T13:33:46.899Z,35.44
2019-04-10T13:36:19.667Z,35.44
2019-04-10T13:38:51.336Z,35.39
2019-04-10T13:41:24.080Z,35.23
2019-04-10T13:43:55.653Z,35.30
2019-04-10T13:46:27.412Z,35.30
2019-04-10T13:49:00.401Z,35.24
2019-04-10T13:51:35.136Z,35.12
2019-04-10T13:54:08.607Z,35.12
2019-04-10T13:56:43.354Z,35.08
2019-04-10T13:59:18.051Z,35.00
2019-04-10T14:01:50.210Z,35.03
2019-04-10T14:04:22.865Z,35.28
2019-04-10T14:06:55.641Z,35.28
2019-04-10T14:09:37.995Z,35.12
2019-04-10T14:12:01.681Z,34.98
2019-04-10T14:14:33.522Z,34.89
2019-04-10T14:17:06.867Z,34.84
2019-04-10T14:19:39.453Z,34.84
2019-04-10T14:22:10.951Z,34.73
2019-04-10T14:24:45.256Z,34.63
2019-04-10T14:27:18.857Z,34.60
2019-04-10T14:29:51.053Z,34.60
2019-04-10T14:32:33.448Z,34.58
2019-04-10T14:35:07.223Z,34.63
2019-04-10T14:37:41.869Z,34.70
2019-04-10T14:40:15.905Z,34.69
2019-04-10T14:42:47.558Z,34.61
2019-04-10T14:45:19.410Z,34.73
2019-04-10T14:47:51.844Z,34.79
2019-04-10T14:50:23.972Z,34.78
2019-04-10T14:52:55.721Z,34.78
2019-04-10T14:55:29.234Z,34.78
2019-04-10T14:58:01.353Z,34.74
2019-04-10T15:00:49.264Z,34.59
2019-04-10T15:03:22.495Z,34.59
2019-04-10T15:05:55.613Z,34.62
2019-04-10T15:08:27.950Z,34.63
2019-04-10T15:11:00.238Z,34.67
2019-04-10T15:13:32.035Z,34.52
2019-04-10T15:16:04.937Z,34.52
2019-04-10T15:18:37.210Z,34.57
2019-04-10T15:21:08.998Z,34.47
2019-04-10T15:23:40.561Z,34.60
2019-04-10T15:26:13.380Z,34.57
2019-04-10T15:28:44.816Z,34.52
2019-04-10T15:31:19.500Z,34.31
2019-04-10T15:33:51.786Z,34.31
2019-04-10T15:36:25.184Z,34.33
2019-04-10T15:38:58.185Z,34.50
2019-04-10T15:41:30.719Z,34.55
2019-04-10T15:44:02.593Z,34.58
2019-04-10T15:46:35.272Z,34.71
2019-04-10T15:49:07.137Z,34.76
2019-04-10T15:51:39.315Z,34.81
2019-04-10T15:54:11.757Z,34.80
2019-04-10T15:56:46.566Z,34.65
2019-04-10T15:59:17.879Z,34.55
2019-04-10T16:01:50.983Z,34.52
2019-04-10T16:04:23.278Z,34.61
2019-04-10T16:06:55.836Z,34.63
2019-04-10T16:09:28.093Z,34.33
2019-04-10T16:12:06.572Z,34.19
2019-04-10T16:14:38.348Z,34.19
2019-04-10T16:17:37.591Z,34.35
2019-04-10T16:20:27.351Z,34.35
2019-04-10T16:23:18.472Z,34.37
2019-04-10T16:25:52.404Z,34.43
2019-04-10T16:28:24.062Z,34.35
2019-04-10T16:30:57.117Z,34.09
2019-04-10T16:33:29.474Z,34.21
2019-04-10T16:36:01.438Z,34.17
2019-04-10T16:38:33.515Z,34.33
2019-04-10T16:41:05.640Z,34.55
2019-04-10T16:43:38.262Z,34.38
2019-04-10T16:46:11.119Z,34.32
2019-04-10T16:48:42.802Z,34.46
2019-04-10T16:51:14.679Z,34.46
2019-04-10T16:53:46.914Z,34.45
2019-04-10T16:56:18.954Z,34.27
2019-04-10T16:58:50.401Z,34.35
2019-04-10T17:01:22.539Z,34.04
2019-04-10T17:03:54.297Z,34.04
2019-04-10T17:06:26.584Z,34.12
2019-04-10T17:08:58.930Z,34.12
2019-04-10T17:11:31.947Z,33.95
2019-04-10T17:14:04.816Z,33.96
2019-04-10T17:16:37.775Z,34.12
2019-04-10T17:19:09.829Z,34.06
2019-04-10T17:21:42.794Z,33.64
2019-04-10T17:24:17.490Z,33.64
2019-04-10T17:26:50.893Z,33.61
2019-04-10T17:29:23.068Z,33.66
2019-04-10T17:31:55.006Z,33.87
2019-04-10T17:34:27.048Z,33.88
2019-04-10T17:36:59.197Z,33.88
2019-04-10T17:39:31.319Z,33.88
2019-04-10T17:42:04.025Z,33.61
2019-04-10T17:44:35.962Z,33.52
2019-04-10T17:47:09.836Z,33.59
2019-04-10T17:49:41.335Z,33.59
2019-04-10T17:52:12.984Z,33.30
2019-04-10T17:54:45.346Z,33.42
2019-04-10T17:57:17.057Z,33.44
2019-04-10T17:59:48.934Z,33.62
2019-04-10T18:02:21.197Z,33.62
2019-04-10T18:04:53.886Z,33.67
2019-04-10T18:07:25.427Z,33.51
2019-04-10T18:09:57.957Z,33.47
2019-04-10T18:12:30.040Z,33.57
2019-04-10T18:15:02.105Z,33.57
2019-04-10T18:17:35.463Z,33.54
2019-04-10T18:20:08.588Z,33.19
2019-04-10T18:22:39.886Z,33.19
2019-04-10T18:25:11.905Z,33.38
2019-04-10T18:27:43.359Z,33.38
2019-04-10T18:30:16.182Z,33.35
2019-04-10T18:32:47.688Z,33.35
2019-04-10T18:35:19.717Z,33.43
2019-04-10T18:37:51.428Z,33.43
2019-04-10T18:40:23.881Z,33.49
2019-04-10T18:42:57.535Z,33.55
2019-04-10T18:45:30.032Z,33.63
2019-04-10T18:48:02.678Z,33.63
2019-04-10T18:50:34.884Z,33.43
2019-04-10T18:53:08.681Z,33.43
2019-04-10T18:55:40.624Z,33.43
2019-04-10T18:58:19.266Z,33.41
2019-04-10T19:01:21.660Z,33.59
2019-04-10T19:04:04.334Z,33.52
2019-04-10T19:06:44.773Z,33.20
2019-04-10T19:09:24.386Z,33.09
2019-04-10T19:11:51.018Z,32.94
2019-04-10T19:14:23.065Z,32.99
2019-04-10T19:16:55.154Z,33.17
2019-04-10T19:19:26.751Z,33.17
2019-04-10T19:21:58.167Z,33.23
2019-04-10T19:24:31.114Z,33.23
2019-04-10T19:27:04.354Z,33.10
2019-04-10T19:29:35.848Z,33.11
2019-04-10T19:32:10.730Z,33.11
2019-04-10T19:34:42.986Z,33.15
2019-04-10T19:37:14.572Z,33.04
2019-04-10T19:39:46.662Z,33.04
2019-04-10T19:42:19.436Z,32.89
2019-04-10T19:44:55.141Z,32.84
2019-04-10T19:47:28.440Z,32.57
2019-04-10T19:50:01.299Z,32.57
2019-04-10T19:52:33.062Z,32.60
2019-04-10T19:55:05.205Z,32.60
2019-04-10T19:57:37.443Z,32.45
2019-04-10T20:00:10.555Z,32.47
2019-04-10T20:02:43.471Z,32.41
2019-04-10T20:05:15.245Z,32.60
2019-04-10T20:07:49.710Z,32.60
2019-04-10T20:10:21.638Z,32.68
2019-04-10T20:12:53.190Z,32.64
2019-04-10T20:15:26.608Z,32.58
2019-04-10T20:17:58.202Z,32.58
2019-04-10T20:20:31.050Z,32.50
2019-04-10T20:23:02.847Z,32.50
2019-04-10T20:25:34.708Z,32.39
2019-04-10T20:28:06.903Z,32.39
2019-04-10T20:30:38.486Z,32.14
2019-04-10T20:33:10.434Z,32.01
2019-04-10T20:35:42.531Z,31.97
2019-04-10T20:38:15.450Z,31.93
2019-04-10T20:40:47.298Z,32.11
2019-04-10T20:43:22.774Z,32.11
2019-04-10T20:45:56.110Z,32.18
2019-04-10T20:48:28.673Z,32.18
2019-04-10T20:51:00.625Z,32.42
2019-04-10T20:53:32.316Z,32.06
2019-04-10T20:56:04.032Z,32.06
2019-04-10T20:58:36.205Z,31.93
2019-04-10T21:01:08.320Z,31.88
2019-04-10T21:03:40.265Z,31.88
2019-04-10T21:06:13.170Z,31.55
2019-04-10T21:08:44.662Z,31.55
2019-04-10T21:11:16.065Z,31.65
2019-04-10T21:13:48.887Z,31.38
2019-04-10T21:16:21.003Z,31.30
2019-04-10T21:18:53.871Z,31.30
2019-04-10T21:21:26.320Z,31.72
2019-04-10T21:23:58.213Z,31.72
2019-04-10T21:26:30.480Z,31.85
2019-04-10T21:29:03.060Z,31.56
2019-04-10T21:31:48.235Z,31.56
2019-04-10T21:34:35.378Z,31.37
2019-04-10T21:37:08.136Z,31.36
2019-04-10T21:39:39.811Z,31.42
2019-04-10T21:42:19.424Z,31.50
2019-04-10T21:44:45.051Z,31.45
2019-04-10T21:47:17.265Z,31.42
2019-04-10T21:49:48.891Z,31.42
2019-04-10T21:52:20.907Z,31.34
2019-04-10T21:54:56.152Z,31.34
2019-04-10T21:57:26.479Z,31.36
2019-04-10T21:59:59.509Z,31.68
2019-04-10T22:02:31.628Z,31.77
2019-04-10T22:05:05.931Z,31.73
2019-04-10T22:08:00.762Z,31.73
2019-04-10T22:10:45.296Z,31.73
2019-04-10T22:13:16.998Z,31.76
2019-04-10T22:15:49.105Z,31.76
2019-04-10T22:18:21.165Z,31.86
2019-04-10T22:20:53.985Z,31.56
2019-04-10T22:23:26.553Z,31.56
2019-04-10T22:25:57.913Z,31.39
2019-04-10T22:28:29.421Z,31.32
2019-04-10T22:31:00.990Z,31.32
2019-04-10T22:33:32.583Z,31.39
2019-04-10T22:36:04.451Z,31.30
2019-04-10T22:38:36.067Z,31.18
2019-04-10T22:41:18.719Z,31.33
2019-04-10T22:43:41.435Z,31.10
2019-04-10T22:46:13.106Z,31.10
2019-04-10T22:48:45.744Z,31.03
2019-04-10T22:51:17.404Z,31.03
2019-04-10T22:53:50.558Z,31.07
2019-04-10T22:56:23.102Z,30.81
2019-04-10T22:58:54.907Z,30.85
2019-04-10T23:01:27.100Z,30.83
2019-04-10T23:03:59.818Z,30.83
2019-04-10T23:06:31.446Z,30.63
2019-04-10T23:09:04.118Z,30.67
2019-04-10T23:11:41.755Z,30.88
2019-04-10T23:14:10.427Z,30.70
2019-04-10T23:16:42.140Z,30.31
2019-04-10T23:19:14.109Z,30.44
2019-04-10T23:21:45.704Z,30.40
2019-04-10T23:24:17.687Z,30.60
2019-04-10T23:26:49.355Z,30.60
2019-04-10T23:29:22.253Z,30.61
2019-04-10T23:31:54.064Z,30.30
2019-04-10T23:34:26.012Z,30.20
2019-04-10T23:36:58.312Z,30.69
2019-04-10T23:39:30.376Z,30.63
2019-04-10T23:42:03.141Z,30.63
2019-04-10T23:44:35.955Z,30.31
2019-04-10T23:47:07.874Z,30.31
2019-04-10T23:49:39.552Z,30.52
2019-04-10T23:52:11.749Z,30.60
2019-04-10T23:54:43.647Z,30.74
2019-04-10T23:57:15.421Z,30.34
2019-04-10T23:59:46.868Z,30.56
